sensor_id;sensor_type;location;lat;lon;timestamp;P1;durP1;ratioP1;P2;durP2;ratioP2
52734;SDS011;38631;47.572;10.704;2023-04-03T00:01:31;6.88;;;5.65;;
52734;SDS011;38631;47.572;10.704;2023-04-03T00:03:56;6.43;;;5.72;;
52734;SDS011;38631;47.572;10.704;2023-04-03T00:06:22;5.85;;;5.25;;
52734;SDS011;38631;47.572;10.704;2023-04-03T00:08:48;7.55;;;5.60;;
52734;SDS011;38631;47.572;10.704;2023-04-03T00:11:14;6.28;;;5.38;;
52734;SDS011;38631;47.572;10.704;2023-04-03T00:13:40;8.43;;;6.05;;
52734;SDS011;38631;47.572;10.704;2023-04-03T00:16:10;6.25;;;5.65;;
52734;SDS011;38631;47.572;10.704;2023-04-03T00:18:35;9.77;;;6.90;;
52734;SDS011;38631;47.572;10.704;2023-04-03T00:21:01;6.63;;;5.95;;
52734;SDS011;38631;47.572;10.704;2023-04-03T00:23:27;6.65;;;5.95;;
52734;SDS011;38631;47.572;10.704;2023-04-03T00:25:53;6.25;;;5.65;;
52734;SDS011;38631;47.572;10.704;2023-04-03T00:28:19;7.75;;;6.95;;
52734;SDS011;38631;47.572;10.704;2023-04-03T00:30:45;7.40;;;6.47;;
52734;SDS011;38631;47.572;10.704;2023-04-03T00:33:11;7.50;;;6.25;;
52734;SDS011;38631;47.572;10.704;2023-04-03T00:35:38;7.40;;;6.50;;
52734;SDS011;38631;47.572;10.704;2023-04-03T00:38:03;7.80;;;6.47;;
52734;SDS011;38631;47.572;10.704;2023-04-03T00:40:32;6.53;;;5.82;;
52734;SDS011;38631;47.572;10.704;2023-04-03T00:43:00;8.45;;;7.07;;
52734;SDS011;38631;47.572;10.704;2023-04-03T00:45:30;8.48;;;6.60;;
52734;SDS011;38631;47.572;10.704;2023-04-03T00:47:58;7.28;;;6.05;;
52734;SDS011;38631;47.572;10.704;2023-04-03T00:50:27;7.35;;;6.57;;
52734;SDS011;38631;47.572;10.704;2023-04-03T00:52:54;7.90;;;6.50;;
52734;SDS011;38631;47.572;10.704;2023-04-03T00:55:20;6.70;;;6.00;;
52734;SDS011;38631;47.572;10.704;2023-04-03T00:57:46;6.28;;;5.63;;
52734;SDS011;38631;47.572;10.704;2023-04-03T01:00:13;6.65;;;5.70;;
52734;SDS011;38631;47.572;10.704;2023-04-03T01:02:41;7.13;;;6.37;;
52734;SDS011;38631;47.572;10.704;2023-04-03T01:05:07;7.25;;;6.25;;
52734;SDS011;38631;47.572;10.704;2023-04-03T01:07:33;6.43;;;5.70;;
52734;SDS011;38631;47.572;10.704;2023-04-03T01:10:02;6.55;;;5.68;;
52734;SDS011;38631;47.572;10.704;2023-04-03T01:12:32;6.85;;;5.72;;
52734;SDS011;38631;47.572;10.704;2023-04-03T01:15:00;6.63;;;5.93;;
52734;SDS011;38631;47.572;10.704;2023-04-03T01:25:34;7.00;;;5.78;;
52734;SDS011;38631;47.572;10.704;2023-04-03T01:28:38;7.43;;;5.90;;
52734;SDS011;38631;47.572;10.704;2023-04-03T01:31:24;6.53;;;5.57;;
52734;SDS011;38631;47.572;10.704;2023-04-03T01:33:51;7.55;;;5.40;;
52734;SDS011;38631;47.572;10.704;2023-04-03T01:36:22;6.50;;;5.80;;
52734;SDS011;38631;47.572;10.704;2023-04-03T01:38:50;7.03;;;5.80;;
52734;SDS011;38631;47.572;10.704;2023-04-03T01:41:16;6.70;;;5.57;;
52734;SDS011;38631;47.572;10.704;2023-04-03T01:43:42;7.32;;;6.15;;
52734;SDS011;38631;47.572;10.704;2023-04-03T01:46:07;8.05;;;6.05;;
52734;SDS011;38631;47.572;10.704;2023-04-03T01:48:33;7.63;;;6.10;;
52734;SDS011;38631;47.572;10.704;2023-04-03T01:50:58;7.72;;;5.70;;
52734;SDS011;38631;47.572;10.704;2023-04-03T01:53:24;8.73;;;6.20;;
52734;SDS011;38631;47.572;10.704;2023-04-03T01:55:49;8.25;;;6.45;;
52734;SDS011;38631;47.572;10.704;2023-04-03T01:58:15;9.30;;;6.70;;
52734;SDS011;38631;47.572;10.704;2023-04-03T02:00:40;8.23;;;6.38;;
52734;SDS011;38631;47.572;10.704;2023-04-03T02:03:06;8.70;;;6.80;;
52734;SDS011;38631;47.572;10.704;2023-04-03T02:05:31;8.68;;;6.35;;
52734;SDS011;38631;47.572;10.704;2023-04-03T02:07:57;8.55;;;6.97;;
52734;SDS011;38631;47.572;10.704;2023-04-03T02:10:23;8.07;;;6.57;;
52734;SDS011;38631;47.572;10.704;2023-04-03T02:12:48;8.23;;;6.68;;
52734;SDS011;38631;47.572;10.704;2023-04-03T02:15:14;9.07;;;7.05;;
52734;SDS011;38631;47.572;10.704;2023-04-03T02:17:39;8.27;;;6.32;;
52734;SDS011;38631;47.572;10.704;2023-04-03T02:20:05;9.63;;;6.90;;
52734;SDS011;38631;47.572;10.704;2023-04-03T02:22:30;8.43;;;6.60;;
52734;SDS011;38631;47.572;10.704;2023-04-03T02:24:56;8.68;;;6.95;;
52734;SDS011;38631;47.572;10.704;2023-04-03T02:27:21;9.63;;;7.50;;
52734;SDS011;38631;47.572;10.704;2023-04-03T02:29:47;8.23;;;6.45;;
52734;SDS011;38631;47.572;10.704;2023-04-03T02:32:12;8.52;;;6.55;;
52734;SDS011;38631;47.572;10.704;2023-04-03T02:34:37;9.18;;;7.10;;
52734;SDS011;38631;47.572;10.704;2023-04-03T02:37:03;7.50;;;5.97;;
52734;SDS011;38631;47.572;10.704;2023-04-03T02:39:28;8.85;;;7.20;;
52734;SDS011;38631;47.572;10.704;2023-04-03T02:41:53;8.93;;;6.57;;
52734;SDS011;38631;47.572;10.704;2023-04-03T02:44:19;7.88;;;6.30;;
52734;SDS011;38631;47.572;10.704;2023-04-03T02:46:44;8.30;;;6.40;;
52734;SDS011;38631;47.572;10.704;2023-04-03T02:49:10;8.75;;;6.20;;
52734;SDS011;38631;47.572;10.704;2023-04-03T02:51:35;7.97;;;6.10;;
52734;SDS011;38631;47.572;10.704;2023-04-03T02:54:00;9.10;;;6.38;;
52734;SDS011;38631;47.572;10.704;2023-04-03T02:56:26;8.10;;;6.57;;
52734;SDS011;38631;47.572;10.704;2023-04-03T02:58:52;8.35;;;6.32;;
52734;SDS011;38631;47.572;10.704;2023-04-03T03:01:18;8.68;;;6.72;;
52734;SDS011;38631;47.572;10.704;2023-04-03T03:03:43;7.53;;;5.85;;
52734;SDS011;38631;47.572;10.704;2023-04-03T03:06:10;7.25;;;6.10;;
52734;SDS011;38631;47.572;10.704;2023-04-03T03:08:38;7.20;;;5.78;;
52734;SDS011;38631;47.572;10.704;2023-04-03T03:11:04;8.80;;;6.32;;
52734;SDS011;38631;47.572;10.704;2023-04-03T03:13:30;8.68;;;6.47;;
52734;SDS011;38631;47.572;10.704;2023-04-03T03:15:55;7.38;;;5.93;;
52734;SDS011;38631;47.572;10.704;2023-04-03T03:18:21;7.38;;;6.07;;
52734;SDS011;38631;47.572;10.704;2023-04-03T03:20:46;7.85;;;6.38;;
52734;SDS011;38631;47.572;10.704;2023-04-03T03:23:15;8.23;;;6.50;;
52734;SDS011;38631;47.572;10.704;2023-04-03T03:25:40;7.32;;;6.10;;
52734;SDS011;38631;47.572;10.704;2023-04-03T03:28:06;9.23;;;6.78;;
52734;SDS011;38631;47.572;10.704;2023-04-03T03:30:32;9.23;;;6.65;;
52734;SDS011;38631;47.572;10.704;2023-04-03T03:32:57;8.70;;;6.45;;
52734;SDS011;38631;47.572;10.704;2023-04-03T03:35:23;9.32;;;6.93;;
52734;SDS011;38631;47.572;10.704;2023-04-03T03:37:48;10.70;;;8.32;;
52734;SDS011;38631;47.572;10.704;2023-04-03T03:40:13;9.15;;;6.75;;
52734;SDS011;38631;47.572;10.704;2023-04-03T03:42:39;10.02;;;7.60;;
52734;SDS011;38631;47.572;10.704;2023-04-03T03:45:05;10.20;;;7.60;;
52734;SDS011;38631;47.572;10.704;2023-04-03T03:47:31;8.98;;;6.93;;
52734;SDS011;38631;47.572;10.704;2023-04-03T03:49:56;9.43;;;6.95;;
52734;SDS011;38631;47.572;10.704;2023-04-03T03:52:21;10.77;;;7.43;;
52734;SDS011;38631;47.572;10.704;2023-04-03T03:54:47;10.18;;;7.55;;
52734;SDS011;38631;47.572;10.704;2023-04-03T03:57:12;11.95;;;7.18;;
52734;SDS011;38631;47.572;10.704;2023-04-03T03:59:37;9.88;;;7.82;;
52734;SDS011;38631;47.572;10.704;2023-04-03T04:02:03;10.02;;;7.57;;
52734;SDS011;38631;47.572;10.704;2023-04-03T04:04:28;12.02;;;7.63;;
52734;SDS011;38631;47.572;10.704;2023-04-03T04:06:54;10.45;;;7.57;;
52734;SDS011;38631;47.572;10.704;2023-04-03T04:09:19;11.30;;;8.38;;
52734;SDS011;38631;47.572;10.704;2023-04-03T04:11:45;10.35;;;7.05;;
52734;SDS011;38631;47.572;10.704;2023-04-03T04:14:10;9.68;;;6.93;;
52734;SDS011;38631;47.572;10.704;2023-04-03T04:16:37;10.43;;;7.57;;
52734;SDS011;38631;47.572;10.704;2023-04-03T04:19:02;9.15;;;6.90;;
52734;SDS011;38631;47.572;10.704;2023-04-03T04:21:28;12.80;;;7.15;;
52734;SDS011;38631;47.572;10.704;2023-04-03T04:23:53;8.88;;;6.40;;
52734;SDS011;38631;47.572;10.704;2023-04-03T04:26:19;8.52;;;6.50;;
52734;SDS011;38631;47.572;10.704;2023-04-03T04:28:45;10.00;;;6.57;;
52734;SDS011;38631;47.572;10.704;2023-04-03T04:31:10;8.82;;;6.68;;
52734;SDS011;38631;47.572;10.704;2023-04-03T04:33:35;10.18;;;6.75;;
52734;SDS011;38631;47.572;10.704;2023-04-03T04:36:01;7.45;;;5.75;;
52734;SDS011;38631;47.572;10.704;2023-04-03T04:38:26;8.10;;;6.43;;
52734;SDS011;38631;47.572;10.704;2023-04-03T04:40:52;9.60;;;6.50;;
52734;SDS011;38631;47.572;10.704;2023-04-03T04:43:17;7.93;;;6.13;;
52734;SDS011;38631;47.572;10.704;2023-04-03T04:45:43;7.18;;;5.47;;
52734;SDS011;38631;47.572;10.704;2023-04-03T04:48:08;8.30;;;6.20;;
52734;SDS011;38631;47.572;10.704;2023-04-03T04:50:33;9.95;;;6.10;;
52734;SDS011;38631;47.572;10.704;2023-04-03T04:52:59;6.15;;;5.03;;
52734;SDS011;38631;47.572;10.704;2023-04-03T04:55:24;7.28;;;5.93;;
52734;SDS011;38631;47.572;10.704;2023-04-03T04:57:50;7.88;;;5.82;;
52734;SDS011;38631;47.572;10.704;2023-04-03T05:00:15;6.88;;;5.45;;
52734;SDS011;38631;47.572;10.704;2023-04-03T05:02:41;10.02;;;4.90;;
52734;SDS011;38631;47.572;10.704;2023-04-03T05:05:06;5.25;;;4.25;;
52734;SDS011;38631;47.572;10.704;2023-04-03T05:07:32;6.05;;;4.68;;
52734;SDS011;38631;47.572;10.704;2023-04-03T05:09:58;6.55;;;5.00;;
52734;SDS011;38631;47.572;10.704;2023-04-03T05:12:23;7.45;;;5.13;;
52734;SDS011;38631;47.572;10.704;2023-04-03T05:14:49;8.18;;;4.47;;
52734;SDS011;38631;47.572;10.704;2023-04-03T05:17:14;5.10;;;3.92;;
52734;SDS011;38631;47.572;10.704;2023-04-03T05:19:40;6.63;;;3.90;;
52734;SDS011;38631;47.572;10.704;2023-04-03T05:22:05;4.03;;;3.20;;
52734;SDS011;38631;47.572;10.704;2023-04-03T05:24:30;5.10;;;3.72;;
52734;SDS011;38631;47.572;10.704;2023-04-03T05:26:56;5.55;;;4.38;;
52734;SDS011;38631;47.572;10.704;2023-04-03T05:29:21;5.15;;;4.25;;
52734;SDS011;38631;47.572;10.704;2023-04-03T05:31:49;5.53;;;4.57;;
52734;SDS011;38631;47.572;10.704;2023-04-03T05:34:15;5.57;;;4.32;;
52734;SDS011;38631;47.572;10.704;2023-04-03T05:36:40;4.82;;;4.00;;
52734;SDS011;38631;47.572;10.704;2023-04-03T05:39:06;5.93;;;4.40;;
52734;SDS011;38631;47.572;10.704;2023-04-03T05:41:32;6.70;;;4.30;;
52734;SDS011;38631;47.572;10.704;2023-04-03T05:43:57;6.03;;;4.78;;
52734;SDS011;38631;47.572;10.704;2023-04-03T05:46:23;6.47;;;4.53;;
52734;SDS011;38631;47.572;10.704;2023-04-03T05:48:48;5.88;;;4.50;;
52734;SDS011;38631;47.572;10.704;2023-04-03T05:51:15;5.80;;;4.45;;
52734;SDS011;38631;47.572;10.704;2023-04-03T05:53:47;6.18;;;4.53;;
52734;SDS011;38631;47.572;10.704;2023-04-03T05:56:13;5.10;;;4.38;;
52734;SDS011;38631;47.572;10.704;2023-04-03T05:58:39;5.40;;;4.53;;
52734;SDS011;38631;47.572;10.704;2023-04-03T06:01:04;5.80;;;4.30;;
52734;SDS011;38631;47.572;10.704;2023-04-03T06:03:30;5.25;;;4.30;;
52734;SDS011;38631;47.572;10.704;2023-04-03T06:05:56;6.07;;;4.15;;
52734;SDS011;38631;47.572;10.704;2023-04-03T06:08:22;6.15;;;4.65;;
52734;SDS011;38631;47.572;10.704;2023-04-03T06:10:48;5.05;;;4.32;;
52734;SDS011;38631;47.572;10.704;2023-04-03T06:13:15;7.90;;;4.85;;
52734;SDS011;38631;47.572;10.704;2023-04-03T06:15:40;5.50;;;4.10;;
52734;SDS011;38631;47.572;10.704;2023-04-03T06:18:06;6.57;;;4.97;;
52734;SDS011;38631;47.572;10.704;2023-04-03T06:20:31;6.10;;;4.90;;
52734;SDS011;38631;47.572;10.704;2023-04-03T06:22:57;10.00;;;6.03;;
52734;SDS011;38631;47.572;10.704;2023-04-03T06:25:22;7.28;;;5.07;;
52734;SDS011;38631;47.572;10.704;2023-04-03T06:27:47;6.05;;;4.70;;
52734;SDS011;38631;47.572;10.704;2023-04-03T06:30:13;6.30;;;4.70;;
52734;SDS011;38631;47.572;10.704;2023-04-03T06:32:39;6.93;;;5.22;;
52734;SDS011;38631;47.572;10.704;2023-04-03T06:35:05;6.30;;;5.05;;
52734;SDS011;38631;47.572;10.704;2023-04-03T06:37:31;7.13;;;5.50;;
52734;SDS011;38631;47.572;10.704;2023-04-03T06:39:57;8.45;;;5.90;;
52734;SDS011;38631;47.572;10.704;2023-04-03T06:42:23;9.45;;;6.05;;
52734;SDS011;38631;47.572;10.704;2023-04-03T06:44:49;9.00;;;6.32;;
52734;SDS011;38631;47.572;10.704;2023-04-03T06:47:14;8.27;;;6.47;;
52734;SDS011;38631;47.572;10.704;2023-04-03T06:49:41;8.43;;;6.72;;
52734;SDS011;38631;47.572;10.704;2023-04-03T06:52:07;9.25;;;6.90;;
52734;SDS011;38631;47.572;10.704;2023-04-03T06:54:34;9.35;;;7.32;;
52734;SDS011;38631;47.572;10.704;2023-04-03T06:57:00;9.38;;;6.40;;
52734;SDS011;38631;47.572;10.704;2023-04-03T06:59:26;10.02;;;7.53;;
52734;SDS011;38631;47.572;10.704;2023-04-03T07:01:51;10.77;;;7.10;;
52734;SDS011;38631;47.572;10.704;2023-04-03T07:04:17;11.15;;;7.55;;
52734;SDS011;38631;47.572;10.704;2023-04-03T07:06:45;9.13;;;6.35;;
52734;SDS011;38631;47.572;10.704;2023-04-03T07:09:11;11.25;;;7.40;;
52734;SDS011;38631;47.572;10.704;2023-04-03T07:11:37;11.68;;;6.47;;
52734;SDS011;38631;47.572;10.704;2023-04-03T07:14:03;10.57;;;7.40;;
52734;SDS011;38631;47.572;10.704;2023-04-03T07:16:28;8.73;;;6.80;;
52734;SDS011;38631;47.572;10.704;2023-04-03T07:18:55;11.15;;;7.45;;
52734;SDS011;38631;47.572;10.704;2023-04-03T07:21:22;10.15;;;7.53;;
52734;SDS011;38631;47.572;10.704;2023-04-03T07:23:47;11.57;;;8.15;;
52734;SDS011;38631;47.572;10.704;2023-04-03T07:26:13;10.68;;;7.88;;
52734;SDS011;38631;47.572;10.704;2023-04-03T07:28:38;11.85;;;8.00;;
52734;SDS011;38631;47.572;10.704;2023-04-03T07:31:06;10.60;;;7.28;;
52734;SDS011;38631;47.572;10.704;2023-04-03T07:33:36;13.18;;;8.25;;
52734;SDS011;38631;47.572;10.704;2023-04-03T07:36:02;12.55;;;8.65;;
52734;SDS011;38631;47.572;10.704;2023-04-03T07:38:28;11.90;;;8.40;;
52734;SDS011;38631;47.572;10.704;2023-04-03T07:40:54;16.10;;;10.02;;
52734;SDS011;38631;47.572;10.704;2023-04-03T07:43:20;12.75;;;8.93;;
52734;SDS011;38631;47.572;10.704;2023-04-03T07:45:46;13.73;;;9.05;;
52734;SDS011;38631;47.572;10.704;2023-04-03T07:48:16;11.85;;;8.77;;
52734;SDS011;38631;47.572;10.704;2023-04-03T07:50:43;12.18;;;9.13;;
52734;SDS011;38631;47.572;10.704;2023-04-03T07:53:09;11.73;;;8.73;;
52734;SDS011;38631;47.572;10.704;2023-04-03T07:55:34;12.30;;;9.00;;
52734;SDS011;38631;47.572;10.704;2023-04-03T07:58:07;12.95;;;8.63;;
52734;SDS011;38631;47.572;10.704;2023-04-03T08:00:33;11.27;;;9.32;;
52734;SDS011;38631;47.572;10.704;2023-04-03T08:03:00;13.63;;;9.57;;
52734;SDS011;38631;47.572;10.704;2023-04-03T08:05:25;12.80;;;8.93;;
52734;SDS011;38631;47.572;10.704;2023-04-03T08:07:50;10.73;;;7.57;;
52734;SDS011;38631;47.572;10.704;2023-04-03T08:10:16;12.38;;;8.05;;
52734;SDS011;38631;47.572;10.704;2023-04-03T08:12:41;11.05;;;8.18;;
52734;SDS011;38631;47.572;10.704;2023-04-03T08:15:07;10.43;;;8.25;;
52734;SDS011;38631;47.572;10.704;2023-04-03T08:17:33;10.02;;;7.63;;
52734;SDS011;38631;47.572;10.704;2023-04-03T08:19:59;10.68;;;8.13;;
52734;SDS011;38631;47.572;10.704;2023-04-03T08:22:25;13.55;;;8.57;;
52734;SDS011;38631;47.572;10.704;2023-04-03T08:24:51;12.23;;;7.70;;
52734;SDS011;38631;47.572;10.704;2023-04-03T08:27:16;12.35;;;8.57;;
52734;SDS011;38631;47.572;10.704;2023-04-03T08:29:41;11.50;;;7.80;;
52734;SDS011;38631;47.572;10.704;2023-04-03T08:32:07;10.43;;;7.40;;
52734;SDS011;38631;47.572;10.704;2023-04-03T08:34:32;11.07;;;7.63;;
52734;SDS011;38631;47.572;10.704;2023-04-03T08:37:03;10.43;;;7.50;;
52734;SDS011;38631;47.572;10.704;2023-04-03T08:39:28;13.32;;;8.60;;
52734;SDS011;38631;47.572;10.704;2023-04-03T08:41:55;10.60;;;7.55;;
52734;SDS011;38631;47.572;10.704;2023-04-03T08:46:56;10.95;;;7.40;;
52734;SDS011;38631;47.572;10.704;2023-04-03T08:52:10;10.68;;;6.53;;
52734;SDS011;38631;47.572;10.704;2023-04-03T08:54:46;9.52;;;6.43;;
52734;SDS011;38631;47.572;10.704;2023-04-03T08:57:20;10.85;;;6.95;;
52734;SDS011;38631;47.572;10.704;2023-04-03T08:59:55;9.40;;;6.07;;
52734;SDS011;38631;47.572;10.704;2023-04-03T09:02:26;8.82;;;6.50;;
52734;SDS011;38631;47.572;10.704;2023-04-03T09:04:57;10.07;;;6.35;;
52734;SDS011;38631;47.572;10.704;2023-04-03T09:07:30;8.50;;;6.57;;
52734;SDS011;38631;47.572;10.704;2023-04-03T09:10:04;11.63;;;6.88;;
52734;SDS011;38631;47.572;10.704;2023-04-03T09:12:32;10.48;;;7.10;;
52734;SDS011;38631;47.572;10.704;2023-04-03T09:17:55;25.13;;;8.20;;
52734;SDS011;38631;47.572;10.704;2023-04-03T09:20:31;8.20;;;6.03;;
52734;SDS011;38631;47.572;10.704;2023-04-03T09:23:08;12.82;;;7.35;;
52734;SDS011;38631;47.572;10.704;2023-04-03T09:25:43;10.43;;;6.43;;
52734;SDS011;38631;47.572;10.704;2023-04-03T09:28:08;7.30;;;6.07;;
52734;SDS011;38631;47.572;10.704;2023-04-03T09:30:36;11.18;;;6.65;;
52734;SDS011;38631;47.572;10.704;2023-04-03T09:33:03;7.78;;;5.95;;
52734;SDS011;38631;47.572;10.704;2023-04-03T09:35:29;8.23;;;6.28;;
52734;SDS011;38631;47.572;10.704;2023-04-03T09:38:16;8.45;;;6.13;;
52734;SDS011;38631;47.572;10.704;2023-04-03T09:41:06;9.57;;;6.07;;
52734;SDS011;38631;47.572;10.704;2023-04-03T09:43:38;7.75;;;5.47;;
52734;SDS011;38631;47.572;10.704;2023-04-03T09:48:51;7.25;;;5.53;;
52734;SDS011;38631;47.572;10.704;2023-04-03T09:51:22;7.32;;;5.50;;
52734;SDS011;38631;47.572;10.704;2023-04-03T09:53:51;8.68;;;5.45;;
52734;SDS011;38631;47.572;10.704;2023-04-03T09:58:43;7.03;;;5.00;;
52734;SDS011;38631;47.572;10.704;2023-04-03T10:01:21;7.07;;;5.00;;
52734;SDS011;38631;47.572;10.704;2023-04-03T10:06:44;7.05;;;5.43;;
52734;SDS011;38631;47.572;10.704;2023-04-03T10:12:03;6.90;;;4.70;;
52734;SDS011;38631;47.572;10.704;2023-04-03T10:14:34;6.20;;;4.68;;
52734;SDS011;38631;47.572;10.704;2023-04-03T10:17:18;6.68;;;4.70;;
52734;SDS011;38631;47.572;10.704;2023-04-03T10:22:18;5.28;;;4.35;;
52734;SDS011;38631;47.572;10.704;2023-04-03T10:28:01;5.45;;;4.07;;
52734;SDS011;38631;47.572;10.704;2023-04-03T10:42:15;5.60;;;3.47;;
52734;SDS011;38631;47.572;10.704;2023-04-03T10:50:13;4.32;;;3.03;;
52734;SDS011;38631;47.572;10.704;2023-04-03T10:53:01;6.50;;;4.45;;
52734;SDS011;38631;47.572;10.704;2023-04-03T10:58:09;5.10;;;3.85;;
52734;SDS011;38631;47.572;10.704;2023-04-03T11:01:16;4.95;;;3.50;;
52734;SDS011;38631;47.572;10.704;2023-04-03T11:03:51;7.32;;;4.47;;
52734;SDS011;38631;47.572;10.704;2023-04-03T11:06:20;4.72;;;3.50;;
52734;SDS011;38631;47.572;10.704;2023-04-03T11:08:50;4.57;;;3.55;;
52734;SDS011;38631;47.572;10.704;2023-04-03T11:11:32;3.72;;;3.00;;
52734;SDS011;38631;47.572;10.704;2023-04-03T11:16:29;3.97;;;2.78;;
52734;SDS011;38631;47.572;10.704;2023-04-03T11:19:16;5.32;;;3.65;;
52734;SDS011;38631;47.572;10.704;2023-04-03T11:36:33;4.25;;;2.92;;
52734;SDS011;38631;47.572;10.704;2023-04-03T11:44:42;4.53;;;3.15;;
52734;SDS011;38631;47.572;10.704;2023-04-03T11:47:09;5.75;;;3.10;;
52734;SDS011;38631;47.572;10.704;2023-04-03T11:49:50;4.60;;;3.10;;
52734;SDS011;38631;47.572;10.704;2023-04-03T11:55:09;3.53;;;2.85;;
52734;SDS011;38631;47.572;10.704;2023-04-03T12:37:17;7.50;;;4.60;;
52734;SDS011;38631;47.572;10.704;2023-04-03T12:43:12;4.75;;;3.40;;
52734;SDS011;38631;47.572;10.704;2023-04-03T12:51:40;6.72;;;2.80;;
52734;SDS011;38631;47.572;10.704;2023-04-03T12:54:26;5.82;;;3.60;;
52734;SDS011;38631;47.572;10.704;2023-04-03T12:57:08;10.30;;;4.60;;
52734;SDS011;38631;47.572;10.704;2023-04-03T12:59:36;4.30;;;3.35;;
52734;SDS011;38631;47.572;10.704;2023-04-03T13:02:03;3.90;;;2.63;;
52734;SDS011;38631;47.572;10.704;2023-04-03T13:04:42;5.40;;;2.90;;
52734;SDS011;38631;47.572;10.704;2023-04-03T13:07:18;5.65;;;2.80;;
52734;SDS011;38631;47.572;10.704;2023-04-03T13:09:55;5.45;;;3.25;;
52734;SDS011;38631;47.572;10.704;2023-04-03T13:12:22;8.38;;;3.75;;
52734;SDS011;38631;47.572;10.704;2023-04-03T13:14:52;5.43;;;3.10;;
52734;SDS011;38631;47.572;10.704;2023-04-03T13:17:19;4.05;;;3.08;;
52734;SDS011;38631;47.572;10.704;2023-04-03T13:19:45;4.28;;;3.00;;
52734;SDS011;38631;47.572;10.704;2023-04-03T13:25:09;3.17;;;2.45;;
52734;SDS011;38631;47.572;10.704;2023-04-03T13:27:38;4.88;;;3.08;;
52734;SDS011;38631;47.572;10.704;2023-04-03T13:30:17;4.28;;;3.00;;
52734;SDS011;38631;47.572;10.704;2023-04-03T13:32:46;4.55;;;2.88;;
52734;SDS011;38631;47.572;10.704;2023-04-03T13:41:29;5.07;;;3.72;;
52734;SDS011;38631;47.572;10.704;2023-04-03T13:48:45;5.15;;;3.72;;
52734;SDS011;38631;47.572;10.704;2023-04-03T13:53:51;8.88;;;6.13;;
52734;SDS011;38631;47.572;10.704;2023-04-03T13:56:21;7.43;;;5.20;;
52734;SDS011;38631;47.572;10.704;2023-04-03T13:58:55;7.00;;;5.07;;
52734;SDS011;38631;47.572;10.704;2023-04-03T14:01:48;7.57;;;4.60;;
52734;SDS011;38631;47.572;10.704;2023-04-03T14:06:45;7.22;;;5.25;;
52734;SDS011;38631;47.572;10.704;2023-04-03T14:09:11;7.63;;;4.95;;
52734;SDS011;38631;47.572;10.704;2023-04-03T14:11:37;9.52;;;5.88;;
52734;SDS011;38631;47.572;10.704;2023-04-03T14:14:06;6.88;;;5.00;;
52734;SDS011;38631;47.572;10.704;2023-04-03T14:16:38;7.85;;;5.10;;
52734;SDS011;38631;47.572;10.704;2023-04-03T14:19:05;8.40;;;5.07;;
52734;SDS011;38631;47.572;10.704;2023-04-03T14:21:31;7.00;;;4.85;;
52734;SDS011;38631;47.572;10.704;2023-04-03T14:23:57;6.95;;;4.72;;
52734;SDS011;38631;47.572;10.704;2023-04-03T14:26:23;6.68;;;4.90;;
52734;SDS011;38631;47.572;10.704;2023-04-03T14:28:52;7.28;;;4.90;;
52734;SDS011;38631;47.572;10.704;2023-04-03T14:31:20;6.95;;;5.05;;
52734;SDS011;38631;47.572;10.704;2023-04-03T14:33:46;7.60;;;5.30;;
52734;SDS011;38631;47.572;10.704;2023-04-03T14:36:12;8.60;;;5.72;;
52734;SDS011;38631;47.572;10.704;2023-04-03T14:38:43;7.40;;;5.00;;
52734;SDS011;38631;47.572;10.704;2023-04-03T14:41:11;6.22;;;4.75;;
52734;SDS011;38631;47.572;10.704;2023-04-03T14:43:38;6.53;;;5.00;;
52734;SDS011;38631;47.572;10.704;2023-04-03T14:46:04;7.45;;;5.18;;
52734;SDS011;38631;47.572;10.704;2023-04-03T14:48:30;7.47;;;4.85;;
52734;SDS011;38631;47.572;10.704;2023-04-03T14:50:56;7.47;;;5.25;;
52734;SDS011;38631;47.572;10.704;2023-04-03T14:53:22;6.15;;;4.50;;
52734;SDS011;38631;47.572;10.704;2023-04-03T14:55:51;5.80;;;4.18;;
52734;SDS011;38631;47.572;10.704;2023-04-03T14:58:18;6.05;;;3.90;;
52734;SDS011;38631;47.572;10.704;2023-04-03T15:00:44;6.55;;;4.57;;
52734;SDS011;38631;47.572;10.704;2023-04-03T15:03:18;5.32;;;4.07;;
52734;SDS011;38631;47.572;10.704;2023-04-03T15:05:46;5.40;;;4.00;;
52734;SDS011;38631;47.572;10.704;2023-04-03T15:08:20;6.35;;;4.15;;
52734;SDS011;38631;47.572;10.704;2023-04-03T15:10:48;5.00;;;4.07;;
52734;SDS011;38631;47.572;10.704;2023-04-03T15:13:14;7.22;;;4.70;;
52734;SDS011;38631;47.572;10.704;2023-04-03T15:15:40;5.47;;;3.83;;
52734;SDS011;38631;47.572;10.704;2023-04-03T15:18:07;6.25;;;4.40;;
52734;SDS011;38631;47.572;10.704;2023-04-03T15:20:38;6.13;;;4.63;;
52734;SDS011;38631;47.572;10.704;2023-04-03T15:23:03;11.77;;;5.05;;
52734;SDS011;38631;47.572;10.704;2023-04-03T15:25:29;5.50;;;3.97;;
52734;SDS011;38631;47.572;10.704;2023-04-03T15:27:57;6.47;;;4.53;;
52734;SDS011;38631;47.572;10.704;2023-04-03T15:30:23;7.30;;;4.80;;
52734;SDS011;38631;47.572;10.704;2023-04-03T15:32:49;6.32;;;4.65;;
52734;SDS011;38631;47.572;10.704;2023-04-03T15:35:14;7.07;;;4.68;;
52734;SDS011;38631;47.572;10.704;2023-04-03T15:37:40;5.88;;;4.38;;
52734;SDS011;38631;47.572;10.704;2023-04-03T15:40:06;5.78;;;4.30;;
52734;SDS011;38631;47.572;10.704;2023-04-03T15:42:32;6.53;;;4.68;;
52734;SDS011;38631;47.572;10.704;2023-04-03T15:44:58;5.68;;;4.00;;
52734;SDS011;38631;47.572;10.704;2023-04-03T15:47:24;8.13;;;4.30;;
52734;SDS011;38631;47.572;10.704;2023-04-03T15:49:50;8.10;;;4.97;;
52734;SDS011;38631;47.572;10.704;2023-04-03T15:52:16;10.75;;;6.07;;
52734;SDS011;38631;47.572;10.704;2023-04-03T15:54:41;7.20;;;4.70;;
52734;SDS011;38631;47.572;10.704;2023-04-03T15:57:06;7.18;;;4.85;;
52734;SDS011;38631;47.572;10.704;2023-04-03T15:59:32;9.38;;;5.15;;
52734;SDS011;38631;47.572;10.704;2023-04-03T16:01:57;6.22;;;4.00;;
52734;SDS011;38631;47.572;10.704;2023-04-03T16:04:24;7.07;;;4.55;;
52734;SDS011;38631;47.572;10.704;2023-04-03T16:06:50;6.07;;;4.40;;
52734;SDS011;38631;47.572;10.704;2023-04-03T16:09:15;7.00;;;4.68;;
52734;SDS011;38631;47.572;10.704;2023-04-03T16:11:41;7.05;;;4.40;;
52734;SDS011;38631;47.572;10.704;2023-04-03T16:14:07;4.88;;;4.07;;
52734;SDS011;38631;47.572;10.704;2023-04-03T16:16:32;5.95;;;4.00;;
52734;SDS011;38631;47.572;10.704;2023-04-03T16:18:58;6.70;;;4.60;;
52734;SDS011;38631;47.572;10.704;2023-04-03T16:21:23;5.03;;;3.95;;
52734;SDS011;38631;47.572;10.704;2023-04-03T16:23:49;7.70;;;4.88;;
52734;SDS011;38631;47.572;10.704;2023-04-03T16:26:15;6.75;;;3.65;;
52734;SDS011;38631;47.572;10.704;2023-04-03T16:28:42;6.30;;;4.65;;
52734;SDS011;38631;47.572;10.704;2023-04-03T16:31:07;4.43;;;4.00;;
52734;SDS011;38631;47.572;10.704;2023-04-03T16:33:33;6.57;;;3.83;;
52734;SDS011;38631;47.572;10.704;2023-04-03T16:35:59;4.97;;;3.78;;
52734;SDS011;38631;47.572;10.704;2023-04-03T16:38:25;4.85;;;3.40;;
52734;SDS011;38631;47.572;10.704;2023-04-03T16:40:50;3.33;;;2.72;;
52734;SDS011;38631;47.572;10.704;2023-04-03T16:43:17;4.05;;;2.80;;
52734;SDS011;38631;47.572;10.704;2023-04-03T16:45:43;4.45;;;2.70;;
52734;SDS011;38631;47.572;10.704;2023-04-03T16:48:08;4.32;;;3.15;;
52734;SDS011;38631;47.572;10.704;2023-04-03T16:50:33;7.25;;;3.53;;
52734;SDS011;38631;47.572;10.704;2023-04-03T16:52:59;5.03;;;3.40;;
52734;SDS011;38631;47.572;10.704;2023-04-03T16:55:24;5.38;;;3.70;;
52734;SDS011;38631;47.572;10.704;2023-04-03T16:57:50;5.50;;;3.30;;
52734;SDS011;38631;47.572;10.704;2023-04-03T17:00:16;4.15;;;3.10;;